Time;durP1;ratioP1;P1;durP2;ratioP2;P2;SDS_P1;SDS_P2;PMS_P1;PMS_P2;Temp;Humidity;BMP_temperature;BMP_pressure;BME280_temperature;BME280_humidity;BME280_pressure;Samples;Min_cycle;Max_cycle;Signal;HPM_P1;HPM_P2
2021/06/28 00:00:31;;;;;;;;;;;20.10;57.60;;;;;;5014370;28;19906;-91
2021/06/28 00:02:57;;;;;;;;;;;20.10;57.60;;;;;;4998266;28;19905;-91
2021/06/28 00:05:23;;;;;;;;;;;20.20;57.30;;;;;;5009790;28;19905;-92
2021/06/28 00:07:49;;;;;;;;;;;20.20;57.10;;;;;;5014547;28;20388;-92
2021/06/28 00:10:25;;;;;;;;;;;20.20;56.80;;;;;;5014048;28;20011;-92
2021/06/28 00:12:51;;;;;;;;;;;20.20;57.60;;;;;;5009745;28;19909;-91
2021/06/28 00:15:18;;;;;;;;;;;20.10;57.30;;;;;;5014336;28;19917;-92
2021/06/28 00:17:44;;;;;;;;;;;20.10;57.50;;;;;;4996327;28;20290;-90
2021/06/28 00:20:11;;;;;;;;;;;20.10;57.60;;;;;;5009181;28;19928;-91
2021/06/28 00:22:36;;;;;;;;;;;20.00;57.80;;;;;;5005397;28;19960;-91
2021/06/28 00:25:08;;;;;;;;;;;20.00;57.80;;;;;;4994343;28;19909;-92
2021/06/28 00:27:34;;;;;;;;;;;19.90;58.10;;;;;;4997343;28;19963;-91
2021/06/28 00:29:59;;;;;;;;;;;19.90;58.80;;;;;;5012708;28;19967;-91
2021/06/28 00:32:25;;;;;;;;;;;20.00;59.00;;;;;;5012820;28;19906;-90
2021/06/28 00:34:50;;;;;;;;;;;19.90;58.50;;;;;;5014656;28;20370;-91
2021/06/28 00:37:15;;;;;;;;;;;19.80;59.20;;;;;;5005235;28;20272;-91
2021/06/28 00:39:41;;;;;;;;;;;19.70;60.10;;;;;;5008498;28;19910;-91
2021/06/28 00:42:07;;;;;;;;;;;;;;;;;;5002491;28;19905;-92
2021/06/28 00:44:33;;;;;;;;;;;19.70;60.20;;;;;;5004597;28;19913;-92
2021/06/28 00:46:58;;;;;;;;;;;19.60;59.90;;;;;;5009363;28;20397;-90
2021/06/28 00:49:24;;;;;;;;;;;19.50;60.50;;;;;;5008149;28;19917;-91
2021/06/28 00:51:49;;;;;;;;;;;19.40;61.50;;;;;;5009619;28;20398;-91
2021/06/28 00:54:15;;;;;;;;;;;19.40;61.70;;;;;;4995070;28;19914;-91
2021/06/28 00:56:40;;;;;;;;;;;19.40;62.50;;;;;;5010823;28;20255;-91
2021/06/28 00:59:06;;;;;;;;;;;19.50;62.70;;;;;;5000291;28;19916;-90
2021/06/28 01:01:31;;;;;;;;;;;19.60;62.20;;;;;;5007375;28;20444;-90
2021/06/28 01:03:57;;;;;;;;;;;19.60;61.70;;;;;;5007458;28;19905;-92
2021/06/28 01:06:22;;;;;;;;;;;19.70;61.20;;;;;;5007669;28;19971;-90
2021/06/28 01:08:48;;;;;;;;;;;;;;;;;;5009718;28;19910;-91
2021/06/28 01:11:14;;;;;;;;;;;19.60;60.70;;;;;;5040234;28;19967;-92
2021/06/28 01:13:42;;;;;;;;;;;19.50;60.70;;;;;;5003214;28;19910;-90
2021/06/28 01:16:08;;;;;;;;;;;;;;;;;;4999806;28;19928;-93
2021/06/28 01:18:34;;;;;;;;;;;19.40;61.50;;;;;;5026923;28;19910;-91
2021/06/28 01:21:00;;;;;;;;;;;19.40;61.50;;;;;;5006052;28;19912;-91
2021/06/28 01:23:30;;;;;;;;;;;19.40;61.50;;;;;;5009799;28;20370;-92
2021/06/28 01:25:57;;;;;;;;;;;19.30;61.40;;;;;;5008049;28;20397;-92
2021/06/28 01:28:23;;;;;;;;;;;;;;;;;;5012522;28;20000;-91
2021/06/28 01:30:49;;;;;;;;;;;19.40;61.90;;;;;;5026826;28;20064;-90
2021/06/28 01:33:15;;;;;;;;;;;19.50;61.50;;;;;;5010547;28;19913;-89
2021/06/28 01:35:41;;;;;;;;;;;19.50;61.00;;;;;;5004191;28;19910;-90
2021/06/28 01:38:07;;;;;;;;;;;19.50;60.50;;;;;;5009692;28;19996;-90
2021/06/28 01:40:33;;;;;;;;;;;;;;;;;;5007909;28;19918;-91
2021/06/28 01:42:59;;;;;;;;;;;19.70;61.20;;;;;;5015257;28;19913;-90
2021/06/28 01:45:25;;;;;;;;;;;19.60;61.40;;;;;;5014616;28;20407;-90
2021/06/28 01:47:51;;;;;;;;;;;19.60;61.20;;;;;;5012266;28;21094;-91
2021/06/28 01:50:17;;;;;;;;;;;19.60;61.70;;;;;;5016702;28;20278;-91
2021/06/28 01:52:43;;;;;;;;;;;19.60;61.20;;;;;;5015924;28;19948;-91
2021/06/28 01:55:11;;;;;;;;;;;19.60;61.40;;;;;;5017134;28;19924;-91
2021/06/28 01:57:40;;;;;;;;;;;19.60;61.50;;;;;;5005124;28;19912;-90
2021/06/28 02:00:06;;;;;;;;;;;19.60;61.30;;;;;;5017168;28;19905;-91
2021/06/28 02:02:31;;;;;;;;;;;19.60;61.10;;;;;;5020417;28;20278;-91
2021/06/28 02:04:57;;;;;;;;;;;19.70;61.10;;;;;;5016342;28;19909;-91
2021/06/28 02:07:24;;;;;;;;;;;19.70;61.50;;;;;;5015334;28;19910;-92
2021/06/28 02:09:50;;;;;;;;;;;19.70;61.00;;;;;;5016742;28;20305;-91
2021/06/28 02:12:15;;;;;;;;;;;19.70;60.90;;;;;;5015990;28;19912;-92
2021/06/28 02:14:41;;;;;;;;;;;19.60;60.70;;;;;;5015280;28;19918;-90
2021/06/28 02:17:06;;;;;;;;;;;19.50;61.60;;;;;;5016050;28;19915;-91
2021/06/28 02:19:32;;;;;;;;;;;19.30;62.10;;;;;;5004912;28;19992;-91
2021/06/28 02:21:57;;;;;;;;;;;19.30;62.50;;;;;;4995484;28;19906;-92
2021/06/28 02:24:24;;;;;;;;;;;19.20;62.80;;;;;;5013943;28;19910;-92
2021/06/28 02:26:50;;;;;;;;;;;19.20;63.20;;;;;;5016117;28;19910;-90
2021/06/28 02:29:15;;;;;;;;;;;19.10;63.30;;;;;;5015924;28;19921;-91
2021/06/28 02:31:41;;;;;;;;;;;19.00;63.70;;;;;;5015378;28;19905;-91
2021/06/28 02:34:06;;;;;;;;;;;19.00;64.00;;;;;;5008601;28;19916;-91
2021/06/28 02:36:32;;;;;;;;;;;19.00;64.50;;;;;;4998517;28;20279;-92
2021/06/28 02:38:58;;;;;;;;;;;19.00;65.40;;;;;;5015014;28;19906;-91
2021/06/28 02:41:23;;;;;;;;;;;19.00;66.20;;;;;;4996647;28;19912;-91
2021/06/28 02:43:50;;;;;;;;;;;19.00;67.40;;;;;;5014315;28;19987;-91
2021/06/28 02:46:15;;;;;;;;;;;19.00;67.70;;;;;;5015831;28;19940;-91
2021/06/28 02:48:41;;;;;;;;;;;19.10;67.90;;;;;;5015760;28;19952;-91
2021/06/28 02:51:08;;;;;;;;;;;19.20;67.90;;;;;;5014573;28;19912;-91
2021/06/28 02:53:34;;;;;;;;;;;;;;;;;;5015518;28;20457;-91
2021/06/28 02:56:12;;;;;;;;;;;19.10;67.90;;;;;;5015624;28;19945;-92
2021/06/28 02:58:38;;;;;;;;;;;19.10;68.70;;;;;;5015477;28;20066;-91
2021/06/28 03:01:04;;;;;;;;;;;19.10;69.10;;;;;;5008336;28;19912;-90
2021/06/28 03:03:29;;;;;;;;;;;19.10;69.40;;;;;;4995013;28;19909;-90
2021/06/28 03:05:55;;;;;;;;;;;19.10;69.20;;;;;;5014178;28;19952;-92
2021/06/28 03:08:20;;;;;;;;;;;19.20;68.90;;;;;;5011099;28;19909;-91
2021/06/28 03:10:46;;;;;;;;;;;19.20;68.90;;;;;;5000941;28;20375;-90
2021/06/28 03:13:11;;;;;;;;;;;19.20;68.40;;;;;;5010845;28;19917;-90
2021/06/28 03:15:37;;;;;;;;;;;19.30;68.30;;;;;;5005007;28;19941;-90
2021/06/28 03:18:02;;;;;;;;;;;19.30;68.70;;;;;;4994652;28;20001;-91
2021/06/28 03:20:28;;;;;;;;;;;19.40;68.00;;;;;;5004586;28;19916;-89
2021/06/28 03:22:53;;;;;;;;;;;19.40;68.20;;;;;;5023908;28;19987;-91
2021/06/28 03:25:19;;;;;;;;;;;19.50;67.30;;;;;;5024125;28;19936;-90
2021/06/28 03:27:45;;;;;;;;;;;19.50;65.80;;;;;;5010178;28;19906;-92
2021/06/28 03:30:14;;;;;;;;;;;19.50;64.90;;;;;;5001914;28;20291;-91
2021/06/28 03:32:40;;;;;;;;;;;19.50;64.90;;;;;;4994198;28;19964;-90
2021/06/28 03:35:06;;;;;;;;;;;19.60;64.50;;;;;;5011115;28;20321;-91
2021/06/28 03:37:31;;;;;;;;;;;19.60;63.90;;;;;;5013918;28;19909;-91
2021/06/28 03:39:57;;;;;;;;;;;19.70;63.20;;;;;;5013587;28;19947;-91
2021/06/28 03:42:22;;;;;;;;;;;19.70;63.40;;;;;;5013581;28;19909;-91
2021/06/28 03:44:48;;;;;;;;;;;19.70;62.70;;;;;;5013830;28;20397;-90
2021/06/28 03:47:13;;;;;;;;;;;19.80;62.20;;;;;;5014307;28;19905;-92
2021/06/28 03:49:39;;;;;;;;;;;19.80;62.70;;;;;;5014344;28;19924;-91
2021/06/28 03:52:04;;;;;;;;;;;19.80;62.50;;;;;;5013315;28;19905;-91
2021/06/28 03:54:30;;;;;;;;;;;19.80;61.90;;;;;;5012969;28;19914;-92
2021/06/28 03:56:55;;;;;;;;;;;19.80;62.20;;;;;;5012977;28;19937;-91
2021/06/28 03:59:21;;;;;;;;;;;19.80;60.00;;;;;;5011186;28;19909;-90
2021/06/28 04:01:46;;;;;;;;;;;19.80;59.40;;;;;;5013529;28;19917;-91
2021/06/28 04:04:12;;;;;;;;;;;;;;;;;;5012911;28;19906;-90
2021/06/28 04:06:38;;;;;;;;;;;19.80;58.80;;;;;;5012231;28;19932;-93
2021/06/28 04:09:04;;;;;;;;;;;19.90;59.20;;;;;;5009481;28;20279;-92
2021/06/28 04:11:30;;;;;;;;;;;19.90;59.40;;;;;;5010576;28;19913;-92
2021/06/28 04:13:56;;;;;;;;;;;19.80;60.60;;;;;;5000247;28;19945;-93
2021/06/28 04:16:21;;;;;;;;;;;19.80;62.40;;;;;;5004009;28;19913;-92
2021/06/28 04:18:47;;;;;;;;;;;19.70;62.90;;;;;;5013736;28;19915;-92
2021/06/28 04:21:12;;;;;;;;;;;19.80;63.10;;;;;;5013630;28;19913;-91
2021/06/28 04:23:38;;;;;;;;;;;;;;;;;;5012355;28;19913;-93
2021/06/28 04:26:04;;;;;;;;;;;19.70;63.60;;;;;;5013730;28;20371;-92
2021/06/28 04:28:29;;;;;;;;;;;19.70;64.00;;;;;;5001813;28;19914;-92
2021/06/28 04:30:55;;;;;;;;;;;19.50;64.50;;;;;;5006444;28;20001;-92
2021/06/28 04:33:21;;;;;;;;;;;;;;;;;;5005720;28;19906;-93
2021/06/28 04:35:46;;;;;;;;;;;19.50;66.30;;;;;;5012762;28;19905;-93
2021/06/28 04:38:12;;;;;;;;;;;19.50;66.30;;;;;;5009284;28;19905;-92
2021/06/28 04:40:37;;;;;;;;;;;19.60;66.40;;;;;;5013912;28;19909;-92
2021/06/28 04:43:03;;;;;;;;;;;19.60;66.50;;;;;;5005161;28;19934;-91
2021/06/28 04:45:29;;;;;;;;;;;19.70;66.50;;;;;;5003848;28;20388;-92
2021/06/28 04:47:55;;;;;;;;;;;19.70;66.20;;;;;;5008051;28;19909;-92
2021/06/28 04:50:23;;;;;;;;;;;19.70;65.90;;;;;;5007091;28;20048;-92
2021/06/28 04:52:50;;;;;;;;;;;19.70;65.40;;;;;;5004880;28;19921;-92
2021/06/28 04:55:16;;;;;;;;;;;19.60;62.50;;;;;;5005323;28;20052;-92
2021/06/28 04:57:42;;;;;;;;;;;19.50;61.60;;;;;;5013087;28;20350;-93
2021/06/28 05:00:09;;;;;;;;;;;19.40;61.90;;;;;;5013451;28;19905;-92
2021/06/28 05:02:35;;;;;;;;;;;19.40;59.90;;;;;;5011847;28;19931;-94
2021/06/28 05:05:00;;;;;;;;;;;19.30;60.30;;;;;;5013390;28;20798;-92
2021/06/28 05:07:26;;;;;;;;;;;19.20;60.10;;;;;;5012902;28;19914;-92
2021/06/28 05:09:51;;;;;;;;;;;19.20;60.50;;;;;;5012231;28;19961;-93
2021/06/28 05:12:17;;;;;;;;;;;19.30;60.00;;;;;;4996367;28;19906;-92
2021/06/28 05:14:43;;;;;;;;;;;19.40;61.20;;;;;;5021785;28;20486;-91
2021/06/28 05:17:08;;;;;;;;;;;19.50;61.60;;;;;;5020073;28;19910;-92
2021/06/28 05:19:34;;;;;;;;;;;19.60;63.10;;;;;;5010956;28;20012;-92
2021/06/28 05:22:00;;;;;;;;;;;19.60;62.10;;;;;;5012640;28;19909;-92
2021/06/28 05:24:26;;;;;;;;;;;19.70;62.00;;;;;;5013808;28;19912;-90
2021/06/28 05:26:51;;;;;;;;;;;19.70;61.80;;;;;;5008557;28;19912;-92
2021/06/28 05:29:17;;;;;;;;;;;19.80;60.10;;;;;;4999580;28;19945;-90
2021/06/28 05:31:42;;;;;;;;;;;19.80;59.50;;;;;;5009904;28;19996;-92
2021/06/28 05:34:08;;;;;;;;;;;19.80;59.80;;;;;;5016853;28;19910;-91
2021/06/28 05:36:34;;;;;;;;;;;19.80;57.30;;;;;;5016854;28;19905;-90
2021/06/28 05:39:00;;;;;;;;;;;19.90;56.60;;;;;;5017251;28;19909;-91
2021/06/28 05:41:25;;;;;;;;;;;20.00;57.80;;;;;;5007032;28;19972;-92
2021/06/28 05:43:51;;;;;;;;;;;20.00;58.10;;;;;;5008761;28;20378;-91
2021/06/28 05:46:17;;;;;;;;;;;;;;;;;;5025018;28;19916;-92
2021/06/28 05:48:43;;;;;;;;;;;20.20;59.50;;;;;;5001984;28;19913;-91
2021/06/28 05:51:08;;;;;;;;;;;20.30;59.80;;;;;;5016850;28;19912;-91
2021/06/28 05:53:34;;;;;;;;;;;;;;;;;;5017025;28;19909;-91
2021/06/28 05:56:00;;;;;;;;;;;20.40;57.80;;;;;;5016030;28;19917;-90
2021/06/28 05:58:28;;;;;;;;;;;20.40;57.50;;;;;;5016439;28;19905;-91
2021/06/28 06:00:53;;;;;;;;;;;20.50;57.90;;;;;;5010869;28;20053;-92
2021/06/28 06:03:19;;;;;;;;;;;20.50;57.00;;;;;;5008663;28;19991;-90
2021/06/28 06:05:44;;;;;;;;;;;20.50;56.70;;;;;;5002537;28;19972;-91
2021/06/28 06:08:10;;;;;;;;;;;20.60;56.30;;;;;;5015199;28;19905;-92
2021/06/28 06:10:36;;;;;;;;;;;20.70;56.10;;;;;;5017812;28;19920;-91
2021/06/28 06:13:01;;;;;;;;;;;20.70;56.50;;;;;;5016022;28;19905;-90
2021/06/28 06:15:27;;;;;;;;;;;20.70;56.40;;;;;;5015089;28;19918;-91
2021/06/28 06:17:53;;;;;;;;;;;;;;;;;;5016626;28;19916;-90
2021/06/28 06:20:19;;;;;;;;;;;;;;;;;;4998452;28;19914;-90
2021/06/28 06:22:45;;;;;;;;;;;;;;;;;;5014550;28;19912;-92
2021/06/28 06:25:11;;;;;;;;;;;20.40;55.30;;;;;;5014819;28;19906;-90
2021/06/28 06:27:36;;;;;;;;;;;20.40;57.10;;;;;;5013211;28;19905;-90
2021/06/28 06:30:03;;;;;;;;;;;20.30;57.70;;;;;;5014928;28;19967;-91
2021/06/28 06:32:29;;;;;;;;;;;;;;;;;;5015390;28;20385;-92
2021/06/28 06:34:55;;;;;;;;;;;20.30;57.70;;;;;;5016247;28;19988;-93
2021/06/28 06:37:20;;;;;;;;;;;20.30;57.90;;;;;;5006639;28;19973;-92
2021/06/28 06:39:46;;;;;;;;;;;20.30;58.20;;;;;;5006864;28;19996;-93
2021/06/28 06:42:11;;;;;;;;;;;20.20;58.90;;;;;;5008504;28;20404;-92
2021/06/28 06:44:37;;;;;;;;;;;20.20;58.50;;;;;;5014999;28;19906;-90
2021/06/28 06:47:03;;;;;;;;;;;20.20;58.80;;;;;;5000643;28;20386;-91
2021/06/28 06:49:28;;;;;;;;;;;;;;;;;;5014294;28;19929;-90
2021/06/28 06:51:54;;;;;;;;;;;20.30;57.70;;;;;;5013295;28;20005;-91
2021/06/28 06:54:20;;;;;;;;;;;20.30;57.70;;;;;;5014683;28;20374;-91
2021/06/28 06:56:45;;;;;;;;;;;20.30;56.60;;;;;;4999309;28;19905;-92
2021/06/28 06:59:11;;;;;;;;;;;;;;;;;;5010803;28;20004;-91
2021/06/28 07:01:38;;;;;;;;;;;20.30;56.40;;;;;;5038754;28;19916;-92
2021/06/28 07:04:04;;;;;;;;;;;20.30;56.70;;;;;;5010758;28;19949;-91
2021/06/28 07:06:30;;;;;;;;;;;20.30;57.70;;;;;;5014187;28;19916;-91
2021/06/28 07:08:55;;;;;;;;;;;20.40;57.00;;;;;;5022859;28;19913;-90
2021/06/28 07:11:21;;;;;;;;;;;20.50;57.30;;;;;;5017646;28;19939;-89
2021/06/28 07:13:50;;;;;;;;;;;20.60;58.00;;;;;;5013964;28;19951;-90
2021/06/28 07:16:16;;;;;;;;;;;20.70;57.70;;;;;;5013654;28;20382;-90
2021/06/28 07:18:42;;;;;;;;;;;20.70;57.40;;;;;;5015380;28;20377;-92
2021/06/28 07:21:07;;;;;;;;;;;20.70;56.80;;;;;;4994663;28;19905;-91
2021/06/28 07:23:33;;;;;;;;;;;;;;;;;;5014792;28;19909;-92
2021/06/28 07:25:59;;;;;;;;;;;20.50;57.90;;;;;;5045707;28;19964;-90
2021/06/28 07:28:25;;;;;;;;;;;;;;;;;;5012664;28;20803;-91
2021/06/28 07:30:51;;;;;;;;;;;;;;;;;;5014119;28;19995;-90
2021/06/28 07:33:18;;;;;;;;;;;20.20;58.90;;;;;;5015284;28;19911;-91
2021/06/28 07:35:44;;;;;;;;;;;20.20;58.00;;;;;;5003379;28;19905;-91
2021/06/28 07:38:10;;;;;;;;;;;20.20;58.70;;;;;;5012985;28;19916;-91
2021/06/28 07:40:35;;;;;;;;;;;20.20;59.80;;;;;;5015084;28;19909;-91
2021/06/28 07:43:01;;;;;;;;;;;20.20;60.50;;;;;;5009136;28;20366;-91
2021/06/28 07:45:26;;;;;;;;;;;20.30;60.10;;;;;;5013538;28;19905;-91
2021/06/28 07:47:52;;;;;;;;;;;20.20;59.90;;;;;;5014195;28;20267;-91
2021/06/28 07:50:19;;;;;;;;;;;20.20;60.10;;;;;;5009468;28;19914;-92
2021/06/28 07:52:45;;;;;;;;;;;;;;;;;;5013684;28;19928;-92
2021/06/28 07:55:12;;;;;;;;;;;20.20;59.60;;;;;;5014454;28;19909;-91
2021/06/28 07:57:40;;;;;;;;;;;20.20;58.70;;;;;;5014480;28;19979;-91
2021/06/28 08:00:07;;;;;;;;;;;20.20;58.90;;;;;;5014520;28;19913;-91
2021/06/28 08:02:32;;;;;;;;;;;20.20;60.00;;;;;;4995323;28;19905;-92
2021/06/28 08:05:00;;;;;;;;;;;20.10;59.10;;;;;;5008043;28;19909;-92
2021/06/28 08:07:26;;;;;;;;;;;20.00;60.30;;;;;;5004162;28;19906;-90
2021/06/28 08:09:51;;;;;;;;;;;20.00;60.80;;;;;;4999991;28;19917;-91
2021/06/28 08:12:17;;;;;;;;;;;20.10;60.10;;;;;;5013732;28;19956;-90
2021/06/28 08:14:42;;;;;;;;;;;20.20;57.70;;;;;;5002124;28;19917;-92
2021/06/28 08:17:08;;;;;;;;;;;20.30;57.20;;;;;;5000121;28;19945;-91
2021/06/28 08:19:34;;;;;;;;;;;;;;;;;;5004923;28;19932;-91
2021/06/28 08:22:00;;;;;;;;;;;20.50;56.10;;;;;;5013733;28;19913;-92
2021/06/28 08:24:26;;;;;;;;;;;;;;;;;;5011361;28;19988;-92
2021/06/28 08:26:52;;;;;;;;;;;20.70;56.40;;;;;;5013380;28;19906;-90
2021/06/28 08:29:18;;;;;;;;;;;21.00;56.90;;;;;;5009100;28;20291;-91
2021/06/28 08:31:45;;;;;;;;;;;21.40;56.20;;;;;;5005329;28;20375;-91
2021/06/28 08:34:11;;;;;;;;;;;22.10;57.10;;;;;;5006253;28;19936;-91
2021/06/28 08:36:37;;;;;;;;;;;23.20;50.10;;;;;;4993283;28;19937;-91
2021/06/28 08:39:03;;;;;;;;;;;23.80;48.80;;;;;;5010652;28;19912;-91
2021/06/28 08:41:28;;;;;;;;;;;25.80;43.60;;;;;;5009939;28;19910;-91
2021/06/28 08:43:54;;;;;;;;;;;26.00;41.60;;;;;;5011429;28;19931;-91
2021/06/28 08:46:20;;;;;;;;;;;27.00;40.60;;;;;;5012021;28;19913;-92
2021/06/28 08:48:46;;;;;;;;;;;27.30;39.90;;;;;;5009477;28;19917;-92
2021/06/28 08:51:12;;;;;;;;;;;27.40;40.00;;;;;;5007549;28;20374;-91
2021/06/28 08:53:38;;;;;;;;;;;28.40;37.60;;;;;;5000717;28;19909;-92
2021/06/28 08:56:07;;;;;;;;;;;28.60;37.50;;;;;;5005087;28;20259;-91
2021/06/28 08:58:34;;;;;;;;;;;28.00;35.80;;;;;;5011135;28;19937;-92
2021/06/28 09:00:59;;;;;;;;;;;27.60;37.20;;;;;;5012270;28;19905;-92
2021/06/28 09:03:25;;;;;;;;;;;27.20;39.90;;;;;;5012536;28;19905;-91
2021/06/28 09:05:51;;;;;;;;;;;26.70;42.00;;;;;;5013815;28;19909;-91
2021/06/28 09:08:19;;;;;;;;;;;26.10;43.40;;;;;;5014506;28;20358;-92
2021/06/28 09:10:44;;;;;;;;;;;25.50;41.70;;;;;;5014267;28;19917;-91
2021/06/28 09:13:10;;;;;;;;;;;25.20;42.90;;;;;;5010093;28;19913;-91
2021/06/28 09:15:41;;;;;;;;;;;25.00;43.80;;;;;;5012415;28;19924;-91
2021/06/28 09:18:14;;;;;;;;;;;24.60;45.10;;;;;;5012669;28;19968;-91
2021/06/28 09:20:39;;;;;;;;;;;24.40;44.60;;;;;;5005282;28;19913;-91
2021/06/28 09:23:15;;;;;;;;;;;24.10;45.80;;;;;;5013110;28;19915;-91
2021/06/28 09:25:40;;;;;;;;;;;24.00;45.70;;;;;;5004920;28;19956;-91
2021/06/28 09:28:06;;;;;;;;;;;23.60;47.40;;;;;;5013114;28;19905;-92
2021/06/28 09:30:35;;;;;;;;;;;23.70;46.80;;;;;;5014133;28;19977;-91
2021/06/28 09:33:02;;;;;;;;;;;23.60;46.70;;;;;;5018590;28;19917;-92
2021/06/28 09:35:35;;;;;;;;;;;23.50;46.90;;;;;;5011899;28;19913;-92
2021/06/28 09:38:00;;;;;;;;;;;;;;;;;;5012253;28;19917;-92
2021/06/28 09:40:26;;;;;;;;;;;23.50;46.70;;;;;;5011262;28;19909;-92
2021/06/28 09:42:52;;;;;;;;;;;23.50;46.70;;;;;;4999577;28;19933;-92
2021/06/28 09:45:20;;;;;;;;;;;23.40;46.90;;;;;;5011856;28;19959;-92
2021/06/28 09:47:46;;;;;;;;;;;23.80;47.20;;;;;;5013145;28;19909;-90
2021/06/28 09:50:13;;;;;;;;;;;24.60;44.90;;;;;;5008974;28;20293;-91
2021/06/28 09:52:43;;;;;;;;;;;25.10;44.30;;;;;;5012884;28;19916;-91
2021/06/28 09:55:18;;;;;;;;;;;25.20;43.00;;;;;;5000942;28;19909;-93
2021/06/28 09:58:02;;;;;;;;;;;25.10;42.30;;;;;;5008702;28;19929;-91
2021/06/28 10:00:28;;;;;;;;;;;24.90;43.20;;;;;;5026735;28;19941;-92
2021/06/28 10:02:53;;;;;;;;;;;24.70;44.10;;;;;;5001230;28;19905;-92
2021/06/28 10:05:23;;;;;;;;;;;24.20;44.50;;;;;;5012565;28;19933;-92
2021/06/28 10:07:48;;;;;;;;;;;23.80;45.30;;;;;;5010236;28;19910;-92
2021/06/28 10:10:32;;;;;;;;;;;23.70;45.80;;;;;;5011028;28;19920;-91
2021/06/28 10:13:00;;;;;;;;;;;23.50;48.20;;;;;;5015333;28;19959;-92
2021/06/28 10:15:29;;;;;;;;;;;23.40;47.80;;;;;;5014866;28;19924;-92
2021/06/28 10:17:55;;;;;;;;;;;23.10;49.50;;;;;;4996930;28;19928;-92
2021/06/28 10:20:22;;;;;;;;;;;23.00;49.50;;;;;;5016532;28;20426;-92
2021/06/28 10:22:50;;;;;;;;;;;23.00;49.50;;;;;;5015450;28;19975;-91
2021/06/28 10:25:17;;;;;;;;;;;22.90;48.00;;;;;;5016434;28;19905;-91
2021/06/28 10:27:43;;;;;;;;;;;22.80;48.40;;;;;;5012094;28;19905;-92
2021/06/28 10:30:13;;;;;;;;;;;22.70;50.20;;;;;;5010741;28;19924;-91
2021/06/28 10:32:40;;;;;;;;;;;22.60;50.60;;;;;;4995451;28;19909;-92
2021/06/28 10:35:07;;;;;;;;;;;22.60;50.70;;;;;;5012025;28;19959;-91
2021/06/28 10:37:35;;;;;;;;;;;22.50;51.40;;;;;;5011115;28;19917;-92
2021/06/28 10:40:06;;;;;;;;;;;22.50;52.60;;;;;;5002771;28;19945;-91
2021/06/28 10:42:33;;;;;;;;;;;22.40;52.70;;;;;;5013579;28;19952;-92
2021/06/28 10:44:59;;;;;;;;;;;22.40;52.80;;;;;;5006224;28;19905;-90
2021/06/28 10:47:27;;;;;;;;;;;22.20;52.80;;;;;;5015667;28;20000;-92
2021/06/28 10:49:53;;;;;;;;;;;22.10;54.10;;;;;;5015345;28;19924;-92
2021/06/28 10:52:33;;;;;;;;;;;22.10;54.80;;;;;;5015476;28;19955;-92
2021/06/28 10:54:59;;;;;;;;;;;21.90;54.90;;;;;;5012783;28;20370;-91
2021/06/28 10:57:41;;;;;;;;;;;21.90;55.10;;;;;;5015563;28;19910;-91
2021/06/28 11:00:07;;;;;;;;;;;21.80;55.50;;;;;;5014610;28;19906;-91
2021/06/28 11:02:40;;;;;;;;;;;21.90;55.80;;;;;;4996582;28;19916;-92
2021/06/28 11:05:06;;;;;;;;;;;21.80;54.50;;;;;;5001025;28;19909;-91
2021/06/28 11:07:42;;;;;;;;;;;21.80;55.40;;;;;;5015447;28;19905;-91
2021/06/28 11:10:12;;;;;;;;;;;21.70;56.50;;;;;;5015023;28;19917;-92
2021/06/28 11:12:37;;;;;;;;;;;21.60;57.10;;;;;;5010914;28;19912;-92
2021/06/28 11:15:23;;;;;;;;;;;21.50;57.20;;;;;;4998404;28;19996;-92
2021/06/28 11:17:50;;;;;;;;;;;21.40;58.00;;;;;;5014985;28;19905;-92
2021/06/28 11:20:24;;;;;;;;;;;21.30;58.60;;;;;;5000449;28;19914;-90
2021/06/28 11:22:52;;;;;;;;;;;21.20;59.70;;;;;;4999781;28;19913;-91
2021/06/28 11:25:19;;;;;;;;;;;21.30;59.60;;;;;;5011300;28;19906;-92
2021/06/28 11:28:07;;;;;;;;;;;21.30;58.90;;;;;;5014912;28;19936;-92
2021/06/28 11:30:35;;;;;;;;;;;21.30;59.40;;;;;;4996238;28;20386;-92
2021/06/28 11:33:05;;;;;;;;;;;21.30;59.60;;;;;;5009019;28;20394;-91
2021/06/28 11:35:36;;;;;;;;;;;21.30;60.90;;;;;;5014872;28;19910;-92
2021/06/28 11:38:19;;;;;;;;;;;21.20;59.20;;;;;;5000160;28;19906;-91
2021/06/28 11:40:51;;;;;;;;;;;21.00;59.80;;;;;;5007612;28;19909;-91
2021/06/28 11:43:32;;;;;;;;;;;20.90;59.70;;;;;;5014513;28;19905;-92
2021/06/28 11:45:58;;;;;;;;;;;21.00;61.10;;;;;;5009732;28;19909;-91
2021/06/28 11:48:24;;;;;;;;;;;;;;;;;;5012386;28;20008;-90
2021/06/28 11:50:49;;;;;;;;;;;21.20;62.50;;;;;;5007617;28;19961;-90
2021/06/28 11:53:15;;;;;;;;;;;;;;;;;;5018607;28;19913;-91
2021/06/28 11:55:45;;;;;;;;;;;21.60;61.20;;;;;;5012521;28;19916;-90
2021/06/28 11:58:10;;;;;;;;;;;21.70;60.20;;;;;;5014362;28;19917;-91
2021/06/28 12:00:36;;;;;;;;;;;21.80;59.10;;;;;;5012999;28;19909;-89
2021/06/28 12:03:13;;;;;;;;;;;21.70;58.00;;;;;;5014426;28;19999;-91
2021/06/28 12:05:39;;;;;;;;;;;21.70;58.20;;;;;;5014061;28;19996;-91
2021/06/28 12:08:05;;;;;;;;;;;21.60;58.60;;;;;;5010927;28;19909;-91
2021/06/28 12:10:31;;;;;;;;;;;21.60;58.60;;;;;;5013334;28;19913;-90
2021/06/28 12:12:56;;;;;;;;;;;21.50;58.90;;;;;;5009679;28;20425;-90
2021/06/28 12:15:26;;;;;;;;;;;21.70;59.00;;;;;;5003442;28;19971;-91
2021/06/28 12:17:51;;;;;;;;;;;21.80;59.00;;;;;;5013852;28;19909;-92
2021/06/28 12:20:19;;;;;;;;;;;21.90;58.40;;;;;;5013109;28;19940;-91
2021/06/28 12:22:45;;;;;;;;;;;22.00;57.70;;;;;;5011276;28;19996;-92
2021/06/28 12:25:15;;;;;;;;;;;22.10;58.90;;;;;;5013761;28;19949;-92
2021/06/28 12:27:42;;;;;;;;;;;22.40;58.00;;;;;;5010076;28;19921;-90
2021/06/28 12:30:11;;;;;;;;;;;22.40;59.30;;;;;;5013009;28;19959;-91
2021/06/28 12:32:44;;;;;;;;;;;22.50;58.70;;;;;;5017761;28;19913;-91
2021/06/28 12:35:12;;;;;;;;;;;22.70;58.20;;;;;;5008244;28;20314;-91
2021/06/28 12:37:39;;;;;;;;;;;22.60;58.10;;;;;;5014463;28;19929;-93
2021/06/28 12:40:17;;;;;;;;;;;22.90;56.90;;;;;;5008701;28;19910;-91
2021/06/28 12:42:57;;;;;;;;;;;23.00;55.90;;;;;;5013013;28;19912;-91
2021/06/28 12:45:24;;;;;;;;;;;23.00;55.60;;;;;;5012792;28;19913;-92
2021/06/28 12:47:51;;;;;;;;;;;23.00;56.60;;;;;;5010032;28;20405;-91
2021/06/28 12:50:21;;;;;;;;;;;23.00;55.90;;;;;;5000838;28;19936;-92
2021/06/28 12:52:47;;;;;;;;;;;23.10;55.00;;;;;;5000702;28;19909;-91
2021/06/28 12:55:21;;;;;;;;;;;23.20;52.90;;;;;;5008537;28;19951;-89
2021/06/28 12:57:59;;;;;;;;;;;23.20;54.00;;;;;;4996921;28;19916;-91
2021/06/28 13:00:25;;;;;;;;;;;23.20;54.50;;;;;;5012352;28;19906;-91
2021/06/28 13:02:52;;;;;;;;;;;23.20;53.90;;;;;;5013599;28;19909;-91
2021/06/28 13:05:18;;;;;;;;;;;23.10;54.10;;;;;;5012853;28;19912;-91
2021/06/28 13:07:43;;;;;;;;;;;23.10;54.70;;;;;;5005682;28;20345;-91
2021/06/28 13:10:09;;;;;;;;;;;23.00;53.40;;;;;;5000128;28;19914;-91
2021/06/28 13:12:34;;;;;;;;;;;23.00;54.90;;;;;;5002585;28;19913;-91
2021/06/28 13:15:17;;;;;;;;;;;23.00;55.60;;;;;;4992611;28;19928;-91
2021/06/28 13:17:42;;;;;;;;;;;23.00;55.40;;;;;;5011784;28;19909;-91
2021/06/28 13:20:21;;;;;;;;;;;22.90;54.90;;;;;;5005537;28;19912;-93
2021/06/28 13:22:46;;;;;;;;;;;22.80;56.10;;;;;;5012041;28;19912;-92
2021/06/28 13:25:16;;;;;;;;;;;22.80;56.00;;;;;;5013493;28;20158;-92
2021/06/28 13:27:42;;;;;;;;;;;22.70;56.70;;;;;;4995147;28;19905;-90
2021/06/28 13:30:22;;;;;;;;;;;22.70;58.00;;;;;;4997793;28;19921;-91
2021/06/28 13:32:48;;;;;;;;;;;22.50;57.70;;;;;;5009208;28;19906;-92
2021/06/28 13:35:29;;;;;;;;;;;22.60;57.30;;;;;;5013392;28;19905;-92
2021/06/28 13:38:08;;;;;;;;;;;22.50;56.80;;;;;;5003677;28;19913;-91
2021/06/28 13:40:34;;;;;;;;;;;22.40;58.00;;;;;;5007871;28;19940;-91
2021/06/28 13:42:59;;;;;;;;;;;22.50;57.80;;;;;;5016724;28;19917;-91
2021/06/28 13:45:28;;;;;;;;;;;22.50;57.90;;;;;;5016318;28;19905;-92
2021/06/28 13:48:13;;;;;;;;;;;22.50;58.30;;;;;;5017317;28;19941;-91
2021/06/28 13:50:40;;;;;;;;;;;22.50;58.00;;;;;;5001509;28;19913;-91
2021/06/28 13:53:08;;;;;;;;;;;22.70;58.10;;;;;;5014774;28;19905;-91
2021/06/28 13:55:33;;;;;;;;;;;22.70;58.20;;;;;;5015558;28;19921;-92
2021/06/28 13:58:00;;;;;;;;;;;22.80;57.80;;;;;;5010900;28;19905;-92
2021/06/28 14:00:27;;;;;;;;;;;23.00;57.70;;;;;;4998490;28;19906;-91
2021/06/28 14:02:53;;;;;;;;;;;23.00;57.40;;;;;;5016594;28;20047;-92
2021/06/28 14:05:19;;;;;;;;;;;23.00;57.10;;;;;;5015696;28;19905;-91
2021/06/28 14:07:45;;;;;;;;;;;23.00;56.70;;;;;;5015310;28;19913;-91
2021/06/28 14:10:11;;;;;;;;;;;23.00;56.30;;;;;;5015737;28;20003;-91
2021/06/28 14:12:37;;;;;;;;;;;23.00;56.50;;;;;;5015938;28;19988;-91
2021/06/28 14:15:03;;;;;;;;;;;23.10;56.70;;;;;;5015233;28;19964;-92
2021/06/28 14:17:29;;;;;;;;;;;23.10;56.30;;;;;;5019335;28;19917;-91
2021/06/28 14:19:54;;;;;;;;;;;23.00;56.90;;;;;;5016197;28;19910;-91
2021/06/28 14:22:20;;;;;;;;;;;23.00;57.10;;;;;;5011298;28;20375;-92
2021/06/28 14:24:45;;;;;;;;;;;23.10;56.90;;;;;;5016289;28;19937;-92